sensor_id;sensor_type;location;lat;lon;timestamp;temperature;humidity
73121;DHT22;61307;49.628;-1.624;2023-08-08T00:00:07;19.10;60.80
73121;DHT22;61307;49.628;-1.624;2023-08-08T00:02:02;19.10;60.80
73121;DHT22;61307;49.628;-1.624;2023-08-08T00:05:12;19.10;60.80
73121;DHT22;61307;49.628;-1.624;2023-08-08T00:11:16;19.10;60.80
73121;DHT22;61307;49.628;-1.624;2023-08-08T00:13:51;19.10;60.80
73121;DHT22;61307;49.628;-1.624;2023-08-08T00:16:44;19.10;60.70
73121;DHT22;61307;49.628;-1.624;2023-08-08T00:19:11;19.10;60.70
73121;DHT22;61307;49.628;-1.624;2023-08-08T00:22:26;19.10;60.70
73121;DHT22;61307;49.628;-1.624;2023-08-08T00:28:25;19.10;60.70
73121;DHT22;61307;49.628;-1.624;2023-08-08T00:34:47;19.10;60.60
73121;DHT22;61307;49.628;-1.624;2023-08-08T00:37:30;19.10;60.70
73121;DHT22;61307;49.628;-1.624;2023-08-08T00:40:00;19.10;60.70
73121;DHT22;61307;49.628;-1.624;2023-08-08T00:42:29;19.00;60.50
73121;DHT22;61307;49.628;-1.624;2023-08-08T00:48:11;19.10;60.60
73121;DHT22;61307;49.628;-1.624;2023-08-08T00:54:07;19.10;60.50
73121;DHT22;61307;49.628;-1.624;2023-08-08T00:56:36;19.00;60.40
73121;DHT22;61307;49.628;-1.624;2023-08-08T00:59:13;19.00;60.40
73121;DHT22;61307;49.628;-1.624;2023-08-08T01:05:50;19.00;60.40
73121;DHT22;61307;49.628;-1.624;2023-08-08T01:08:27;19.00;60.50
73121;DHT22;61307;49.628;-1.624;2023-08-08T01:10:57;19.00;60.40
73121;DHT22;61307;49.628;-1.624;2023-08-08T01:13:28;19.00;60.50
73121;DHT22;61307;49.628;-1.624;2023-08-08T01:15:58;19.00;60.40
73121;DHT22;61307;49.628;-1.624;2023-08-08T01:22:32;19.00;60.30
73121;DHT22;61307;49.628;-1.624;2023-08-08T01:25:27;19.00;60.30
73121;DHT22;61307;49.628;-1.624;2023-08-08T01:27:56;19.00;60.40
73121;DHT22;61307;49.628;-1.624;2023-08-08T01:30:23;19.00;60.40
73121;DHT22;61307;49.628;-1.624;2023-08-08T01:32:50;19.00;60.30
73121;DHT22;61307;49.628;-1.624;2023-08-08T01:35:39;19.00;60.30
73121;DHT22;61307;49.628;-1.624;2023-08-08T01:38:12;19.00;60.30
73121;DHT22;61307;49.628;-1.624;2023-08-08T01:40:59;19.00;60.30
73121;DHT22;61307;49.628;-1.624;2023-08-08T01:43:41;19.00;60.30
73121;DHT22;61307;49.628;-1.624;2023-08-08T01:46:17;19.00;60.30
73121;DHT22;61307;49.628;-1.624;2023-08-08T01:48:55;19.00;60.30
73121;DHT22;61307;49.628;-1.624;2023-08-08T01:51:26;19.00;60.30
73121;DHT22;61307;49.628;-1.624;2023-08-08T01:54:16;19.00;60.20
73121;DHT22;61307;49.628;-1.624;2023-08-08T01:56:48;19.00;60.20
73121;DHT22;61307;49.628;-1.624;2023-08-08T01:59:18;18.90;60.10
73121;DHT22;61307;49.628;-1.624;2023-08-08T02:02:14;18.90;60.10
73121;DHT22;61307;49.628;-1.624;2023-08-08T02:08:16;18.90;60.00
73121;DHT22;61307;49.628;-1.624;2023-08-08T02:10:44;18.90;59.90
73121;DHT22;61307;49.628;-1.624;2023-08-08T02:13:24;18.90;59.90
73121;DHT22;61307;49.628;-1.624;2023-08-08T02:16:07;18.90;59.90
73121;DHT22;61307;49.628;-1.624;2023-08-08T02:18:42;18.90;59.80
73121;DHT22;61307;49.628;-1.624;2023-08-08T02:21:24;18.90;59.90
73121;DHT22;61307;49.628;-1.624;2023-08-08T02:24:30;18.90;59.80
73121;DHT22;61307;49.628;-1.624;2023-08-08T02:27:12;18.90;59.80
73121;DHT22;61307;49.628;-1.624;2023-08-08T02:29:44;18.90;59.80
73121;DHT22;61307;49.628;-1.624;2023-08-08T02:36:12;18.90;59.80
73121;DHT22;61307;49.628;-1.624;2023-08-08T02:39:13;18.90;59.80
73121;DHT22;61307;49.628;-1.624;2023-08-08T02:41:40;18.90;59.80
73121;DHT22;61307;49.628;-1.624;2023-08-08T02:44:10;18.90;60.60
73121;DHT22;61307;49.628;-1.624;2023-08-08T02:46:39;18.90;59.80
73121;DHT22;61307;49.628;-1.624;2023-08-08T02:49:07;18.90;59.80
73121;DHT22;61307;49.628;-1.624;2023-08-08T02:51:35;18.90;59.70
73121;DHT22;61307;49.628;-1.624;2023-08-08T02:54:03;18.90;59.70
73121;DHT22;61307;49.628;-1.624;2023-08-08T02:56:44;18.90;59.60
73121;DHT22;61307;49.628;-1.624;2023-08-08T02:59:11;18.90;59.70
73121;DHT22;61307;49.628;-1.624;2023-08-08T03:01:40;18.80;59.50
73121;DHT22;61307;49.628;-1.624;2023-08-08T03:04:16;18.90;59.60
73121;DHT22;61307;49.628;-1.624;2023-08-08T03:09:51;18.80;59.50
73121;DHT22;61307;49.628;-1.624;2023-08-08T03:12:18;18.90;59.50
73121;DHT22;61307;49.628;-1.624;2023-08-08T03:20:59;18.80;59.50
73121;DHT22;61307;49.628;-1.624;2023-08-08T03:23:26;18.80;60.30
73121;DHT22;61307;49.628;-1.624;2023-08-08T03:28:41;18.90;59.60
73121;DHT22;61307;49.628;-1.624;2023-08-08T03:34:45;18.80;59.50
73121;DHT22;61307;49.628;-1.624;2023-08-08T03:37:29;18.80;59.60
73121;DHT22;61307;49.628;-1.624;2023-08-08T03:39:57;18.80;59.60
73121;DHT22;61307;49.628;-1.624;2023-08-08T03:42:24;18.80;59.60
73121;DHT22;61307;49.628;-1.624;2023-08-08T03:44:52;18.80;59.60
73121;DHT22;61307;49.628;-1.624;2023-08-08T03:47:25;18.80;59.60
73121;DHT22;61307;49.628;-1.624;2023-08-08T03:50:09;18.80;59.60
73121;DHT22;61307;49.628;-1.624;2023-08-08T03:52:55;18.80;59.70
73121;DHT22;61307;49.628;-1.624;2023-08-08T03:55:36;18.80;59.70
73121;DHT22;61307;49.628;-1.624;2023-08-08T04:01:41;18.80;59.80
73121;DHT22;61307;49.628;-1.624;2023-08-08T04:04:08;18.80;59.70
73121;DHT22;61307;49.628;-1.624;2023-08-08T04:06:37;18.80;59.70
73121;DHT22;61307;49.628;-1.624;2023-08-08T04:09:04;18.70;59.60
73121;DHT22;61307;49.628;-1.624;2023-08-08T04:11:48;18.80;59.80
73121;DHT22;61307;49.628;-1.624;2023-08-08T04:24:29;18.80;59.80
73121;DHT22;61307;49.628;-1.624;2023-08-08T04:27:06;18.80;59.80
73121;DHT22;61307;49.628;-1.624;2023-08-08T04:32:53;18.80;59.80
73121;DHT22;61307;49.628;-1.624;2023-08-08T04:38:57;18.70;59.80
73121;DHT22;61307;49.628;-1.624;2023-08-08T04:41:25;18.70;59.70
73121;DHT22;61307;49.628;-1.624;2023-08-08T04:43:53;18.80;59.80
73121;DHT22;61307;49.628;-1.624;2023-08-08T04:46:20;18.70;59.70
73121;DHT22;61307;49.628;-1.624;2023-08-08T04:48:55;18.70;59.80
73121;DHT22;61307;49.628;-1.624;2023-08-08T04:54:07;18.70;59.80
73121;DHT22;61307;49.628;-1.624;2023-08-08T04:56:39;18.70;59.70
73121;DHT22;61307;49.628;-1.624;2023-08-08T05:03:04;18.70;59.70
73121;DHT22;61307;49.628;-1.624;2023-08-08T05:05:31;18.70;59.80
73121;DHT22;61307;49.628;-1.624;2023-08-08T05:08:05;18.70;59.80
73121;DHT22;61307;49.628;-1.624;2023-08-08T05:10:32;18.70;59.80
73121;DHT22;61307;49.628;-1.624;2023-08-08T05:13:39;18.70;59.80
73121;DHT22;61307;49.628;-1.624;2023-08-08T05:16:06;18.70;59.80
73121;DHT22;61307;49.628;-1.624;2023-08-08T05:18:35;18.70;59.80
73121;DHT22;61307;49.628;-1.624;2023-08-08T05:24:44;18.70;59.90
73121;DHT22;61307;49.628;-1.624;2023-08-08T05:27:11;18.70;60.70
73121;DHT22;61307;49.628;-1.624;2023-08-08T05:29:43;18.70;59.90
73121;DHT22;61307;49.628;-1.624;2023-08-08T05:32:25;18.70;60.00
73121;DHT22;61307;49.628;-1.624;2023-08-08T05:35:02;18.70;60.00
73121;DHT22;61307;49.628;-1.624;2023-08-08T05:37:30;18.70;60.10
73121;DHT22;61307;49.628;-1.624;2023-08-08T05:39:58;18.70;60.10
73121;DHT22;61307;49.628;-1.624;2023-08-08T05:42:31;18.70;60.10
73121;DHT22;61307;49.628;-1.624;2023-08-08T05:45:31;18.70;60.20
73121;DHT22;61307;49.628;-1.624;2023-08-08T05:48:19;18.70;60.30
73121;DHT22;61307;49.628;-1.624;2023-08-08T05:50:48;18.70;60.30
73121;DHT22;61307;49.628;-1.624;2023-08-08T05:53:24;18.70;60.40
73121;DHT22;61307;49.628;-1.624;2023-08-08T05:56:13;18.70;60.40
73121;DHT22;61307;49.628;-1.624;2023-08-08T06:02:47;18.70;60.70
73121;DHT22;61307;49.628;-1.624;2023-08-08T06:05:17;18.70;60.80
73121;DHT22;61307;49.628;-1.624;2023-08-08T06:07:44;18.70;60.80
73121;DHT22;61307;49.628;-1.624;2023-08-08T06:10:14;18.70;60.80
73121;DHT22;61307;49.628;-1.624;2023-08-08T06:12:41;18.70;60.80
73121;DHT22;61307;49.628;-1.624;2023-08-08T06:15:32;18.70;61.60
73121;DHT22;61307;49.628;-1.624;2023-08-08T06:18:15;18.70;60.90
73121;DHT22;61307;49.628;-1.624;2023-08-08T06:20:43;18.70;60.90
73121;DHT22;61307;49.628;-1.624;2023-08-08T06:25:29;18.70;61.00
73121;DHT22;61307;49.628;-1.624;2023-08-08T06:26:25;18.80;61.10
73121;DHT22;61307;49.628;-1.624;2023-08-08T06:32:24;18.70;61.30
73121;DHT22;61307;49.628;-1.624;2023-08-08T06:35:19;18.70;61.30
73121;DHT22;61307;49.628;-1.624;2023-08-08T06:38:00;18.70;61.40
73121;DHT22;61307;49.628;-1.624;2023-08-08T06:40:27;18.70;61.40
73121;DHT22;61307;49.628;-1.624;2023-08-08T06:42:56;18.70;61.60
73121;DHT22;61307;49.628;-1.624;2023-08-08T06:45:24;18.80;61.70
73121;DHT22;61307;49.628;-1.624;2023-08-08T06:47:51;18.80;61.80
73121;DHT22;61307;49.628;-1.624;2023-08-08T06:50:36;18.70;61.70
73121;DHT22;61307;49.628;-1.624;2023-08-08T06:53:17;18.80;61.90
73121;DHT22;61307;49.628;-1.624;2023-08-08T06:55:56;18.80;61.90
73121;DHT22;61307;49.628;-1.624;2023-08-08T06:58:23;18.70;61.90
73121;DHT22;61307;49.628;-1.624;2023-08-08T07:00:51;18.80;62.10
73121;DHT22;61307;49.628;-1.624;2023-08-08T07:03:19;18.80;62.20
73121;DHT22;61307;49.628;-1.624;2023-08-08T07:05:47;18.80;62.20
73121;DHT22;61307;49.628;-1.624;2023-08-08T07:08:17;18.80;62.30
73121;DHT22;61307;49.628;-1.624;2023-08-08T07:10:46;18.80;62.30
73121;DHT22;61307;49.628;-1.624;2023-08-08T07:13:14;18.80;62.40
73121;DHT22;61307;49.628;-1.624;2023-08-08T07:15:41;18.80;62.50
73121;DHT22;61307;49.628;-1.624;2023-08-08T07:18:09;18.80;62.50
73121;DHT22;61307;49.628;-1.624;2023-08-08T07:20:36;18.80;62.80
73121;DHT22;61307;49.628;-1.624;2023-08-08T07:23:06;18.80;63.60
73121;DHT22;61307;49.628;-1.624;2023-08-08T07:36:03;18.80;63.00
73121;DHT22;61307;49.628;-1.624;2023-08-08T07:38:32;18.80;63.10
73121;DHT22;61307;49.628;-1.624;2023-08-08T07:41:03;18.80;63.00
73121;DHT22;61307;49.628;-1.624;2023-08-08T07:47:33;18.80;62.80
73121;DHT22;61307;49.628;-1.624;2023-08-08T07:50:00;18.80;62.70
73121;DHT22;61307;49.628;-1.624;2023-08-08T07:52:28;18.80;62.70
73121;DHT22;61307;49.628;-1.624;2023-08-08T07:54:57;18.80;62.70
73121;DHT22;61307;49.628;-1.624;2023-08-08T07:57:26;18.80;62.80
73121;DHT22;61307;49.628;-1.624;2023-08-08T08:00:12;18.80;62.80
73121;DHT22;61307;49.628;-1.624;2023-08-08T08:12:59;18.80;62.80
73121;DHT22;61307;49.628;-1.624;2023-08-08T08:15:28;18.80;62.80
73121;DHT22;61307;49.628;-1.624;2023-08-08T08:17:55;18.80;62.70
73121;DHT22;61307;49.628;-1.624;2023-08-08T08:23:27;18.80;62.80
73121;DHT22;61307;49.628;-1.624;2023-08-08T08:25:54;18.80;62.80
73121;DHT22;61307;49.628;-1.624;2023-08-08T08:28:38;18.80;62.80
73121;DHT22;61307;49.628;-1.624;2023-08-08T08:31:31;18.80;62.80
73121;DHT22;61307;49.628;-1.624;2023-08-08T08:34:24;18.80;62.90
73121;DHT22;61307;49.628;-1.624;2023-08-08T08:36:52;18.80;62.80
73121;DHT22;61307;49.628;-1.624;2023-08-08T08:39:33;18.90;63.00
73121;DHT22;61307;49.628;-1.624;2023-08-08T08:42:00;18.80;62.70
73121;DHT22;61307;49.628;-1.624;2023-08-08T08:44:46;18.80;62.60
73121;DHT22;61307;49.628;-1.624;2023-08-08T08:47:17;18.80;62.50
73121;DHT22;61307;49.628;-1.624;2023-08-08T08:50:00;18.80;62.50
73121;DHT22;61307;49.628;-1.624;2023-08-08T08:52:29;18.80;62.50
73121;DHT22;61307;49.628;-1.624;2023-08-08T08:55:07;18.80;62.30
73121;DHT22;61307;49.628;-1.624;2023-08-08T08:57:37;18.80;62.20
73121;DHT22;61307;49.628;-1.624;2023-08-08T09:07:03;18.80;62.20
73121;DHT22;61307;49.628;-1.624;2023-08-08T09:09:45;18.80;62.40
73121;DHT22;61307;49.628;-1.624;2023-08-08T09:12:25;18.90;62.50
73121;DHT22;61307;49.628;-1.624;2023-08-08T09:15:07;18.80;62.40
73121;DHT22;61307;49.628;-1.624;2023-08-08T09:17:36;18.80;62.50
73121;DHT22;61307;49.628;-1.624;2023-08-08T09:23:22;18.90;62.50
73121;DHT22;61307;49.628;-1.624;2023-08-08T09:26:00;18.90;62.50
73121;DHT22;61307;49.628;-1.624;2023-08-08T09:28:28;18.80;62.50
73121;DHT22;61307;49.628;-1.624;2023-08-08T09:31:05;18.90;62.60
73121;DHT22;61307;49.628;-1.624;2023-08-08T09:33:38;18.90;62.70
73121;DHT22;61307;49.628;-1.624;2023-08-08T09:36:06;18.90;62.70
73121;DHT22;61307;49.628;-1.624;2023-08-08T09:38:35;18.80;62.50
73121;DHT22;61307;49.628;-1.624;2023-08-08T09:50:48;18.90;62.50
73121;DHT22;61307;49.628;-1.624;2023-08-08T09:53:15;18.90;62.30
73121;DHT22;61307;49.628;-1.624;2023-08-08T09:55:53;18.90;62.20
73121;DHT22;61307;49.628;-1.624;2023-08-08T09:58:21;18.90;62.10
73121;DHT22;61307;49.628;-1.624;2023-08-08T10:04:24;18.90;62.30
73121;DHT22;61307;49.628;-1.624;2023-08-08T10:19:25;18.90;62.30
73121;DHT22;61307;49.628;-1.624;2023-08-08T10:21:58;18.90;62.30
73121;DHT22;61307;49.628;-1.624;2023-08-08T10:24:34;18.90;62.40
73121;DHT22;61307;49.628;-1.624;2023-08-08T10:30:15;18.90;62.50
73121;DHT22;61307;49.628;-1.624;2023-08-08T10:32:43;19.00;62.70
73121;DHT22;61307;49.628;-1.624;2023-08-08T10:35:22;18.90;62.80
73121;DHT22;61307;49.628;-1.624;2023-08-08T10:38:08;19.00;63.10
73121;DHT22;61307;49.628;-1.624;2023-08-08T10:40:57;19.00;63.00
73121;DHT22;61307;49.628;-1.624;2023-08-08T10:43:29;19.00;63.00
73121;DHT22;61307;49.628;-1.624;2023-08-08T10:46:00;19.00;63.10
73121;DHT22;61307;49.628;-1.624;2023-08-08T10:48:52;19.00;62.90
73121;DHT22;61307;49.628;-1.624;2023-08-08T10:51:22;19.10;62.70
73121;DHT22;61307;49.628;-1.624;2023-08-08T10:57:16;19.10;62.70
73121;DHT22;61307;49.628;-1.624;2023-08-08T10:59:48;19.10;62.70
73121;DHT22;61307;49.628;-1.624;2023-08-08T11:02:27;19.10;62.70
73121;DHT22;61307;49.628;-1.624;2023-08-08T11:04:57;19.10;62.60
73121;DHT22;61307;49.628;-1.624;2023-08-08T11:10:40;19.10;62.50
73121;DHT22;61307;49.628;-1.624;2023-08-08T11:13:34;19.20;62.60
73121;DHT22;61307;49.628;-1.624;2023-08-08T11:16:28;19.20;62.60
73121;DHT22;61307;49.628;-1.624;2023-08-08T11:32:36;19.20;62.50
73121;DHT22;61307;49.628;-1.624;2023-08-08T11:35:23;19.20;62.50
73121;DHT22;61307;49.628;-1.624;2023-08-08T11:37:52;19.20;62.60
73121;DHT22;61307;49.628;-1.624;2023-08-08T11:40:21;19.20;62.70
73121;DHT22;61307;49.628;-1.624;2023-08-08T11:43:03;19.30;62.70
73121;DHT22;61307;49.628;-1.624;2023-08-08T11:49:07;19.30;62.80
73121;DHT22;61307;49.628;-1.624;2023-08-08T11:58:23;19.30;62.90
73121;DHT22;61307;49.628;-1.624;2023-08-08T12:08:10;19.30;63.10
73121;DHT22;61307;49.628;-1.624;2023-08-08T12:10:38;19.30;63.20
73121;DHT22;61307;49.628;-1.624;2023-08-08T12:19:04;19.30;63.20
73121;DHT22;61307;49.628;-1.624;2023-08-08T12:21:47;19.30;63.10
73121;DHT22;61307;49.628;-1.624;2023-08-08T12:24:30;19.30;63.20
73121;DHT22;61307;49.628;-1.624;2023-08-08T12:27:32;19.40;63.30
73121;DHT22;61307;49.628;-1.624;2023-08-08T12:33:40;19.30;63.40
73121;DHT22;61307;49.628;-1.624;2023-08-08T12:46:35;19.40;63.40
73121;DHT22;61307;49.628;-1.624;2023-08-08T12:49:30;19.40;63.40
73121;DHT22;61307;49.628;-1.624;2023-08-08T12:51:57;19.40;63.50
73121;DHT22;61307;49.628;-1.624;2023-08-08T12:58:01;19.40;63.60
73121;DHT22;61307;49.628;-1.624;2023-08-08T13:04:11;19.40;64.00
73121;DHT22;61307;49.628;-1.624;2023-08-08T13:06:39;19.40;64.00
73121;DHT22;61307;49.628;-1.624;2023-08-08T13:09:06;19.40;64.00
73121;DHT22;61307;49.628;-1.624;2023-08-08T13:11:34;19.40;63.90
73121;DHT22;61307;49.628;-1.624;2023-08-08T13:14:10;19.40;63.90
73121;DHT22;61307;49.628;-1.624;2023-08-08T13:16:38;19.40;63.90
73121;DHT22;61307;49.628;-1.624;2023-08-08T13:19:08;19.40;64.00
73121;DHT22;61307;49.628;-1.624;2023-08-08T13:28:29;19.50;64.10
73121;DHT22;61307;49.628;-1.624;2023-08-08T13:30:58;19.50;64.20
73121;DHT22;61307;49.628;-1.624;2023-08-08T13:33:26;19.50;64.20
73121;DHT22;61307;49.628;-1.624;2023-08-08T13:41:35;19.50;64.60
73121;DHT22;61307;49.628;-1.624;2023-08-08T13:44:03;19.50;64.40
73121;DHT22;61307;49.628;-1.624;2023-08-08T13:47:03;19.50;64.60
73121;DHT22;61307;49.628;-1.624;2023-08-08T13:59:21;19.50;65.00
73121;DHT22;61307;49.628;-1.624;2023-08-08T14:02:08;19.50;65.50
73121;DHT22;61307;49.628;-1.624;2023-08-08T14:05:07;19.50;65.50
73121;DHT22;61307;49.628;-1.624;2023-08-08T14:07:34;19.50;65.50
73121;DHT22;61307;49.628;-1.624;2023-08-08T14:10:02;19.50;65.60
73121;DHT22;61307;49.628;-1.624;2023-08-08T14:12:32;19.50;65.60
73121;DHT22;61307;49.628;-1.624;2023-08-08T14:15:01;19.50;66.00
73121;DHT22;61307;49.628;-1.624;2023-08-08T14:17:32;19.50;66.20
73121;DHT22;61307;49.628;-1.624;2023-08-08T14:20:13;19.50;66.00
73121;DHT22;61307;49.628;-1.624;2023-08-08T14:23:03;19.50;65.80
73121;DHT22;61307;49.628;-1.624;2023-08-08T14:28:52;19.50;65.90
73121;DHT22;61307;49.628;-1.624;2023-08-08T14:31:34;19.50;66.30
73121;DHT22;61307;49.628;-1.624;2023-08-08T14:34:03;19.50;66.70
73121;DHT22;61307;49.628;-1.624;2023-08-08T14:36:30;19.50;67.30
73121;DHT22;61307;49.628;-1.624;2023-08-08T14:41:53;19.50;67.00
73121;DHT22;61307;49.628;-1.624;2023-08-08T14:44:20;19.40;67.40
73121;DHT22;61307;49.628;-1.624;2023-08-08T14:47:09;19.40;67.40
73121;DHT22;61307;49.628;-1.624;2023-08-08T14:49:37;19.40;68.30
73121;DHT22;61307;49.628;-1.624;2023-08-08T14:52:35;19.40;69.00
73121;DHT22;61307;49.628;-1.624;2023-08-08T14:55:03;19.40;69.10
73121;DHT22;61307;49.628;-1.624;2023-08-08T14:58:21;19.40;69.00
73121;DHT22;61307;49.628;-1.624;2023-08-08T15:00:48;19.40;69.10
73121;DHT22;61307;49.628;-1.624;2023-08-08T15:03:17;19.40;69.10
73121;DHT22;61307;49.628;-1.624;2023-08-08T15:05:48;19.40;69.10
73121;DHT22;61307;49.628;-1.624;2023-08-08T15:08:29;19.40;69.40
73121;DHT22;61307;49.628;-1.624;2023-08-08T15:10:58;19.40;69.40
73121;DHT22;61307;49.628;-1.624;2023-08-08T15:13:52;19.40;70.40
73121;DHT22;61307;49.628;-1.624;2023-08-08T15:16:33;19.40;69.90
73121;DHT22;61307;49.628;-1.624;2023-08-08T15:19:29;19.40;69.80
73121;DHT22;61307;49.628;-1.624;2023-08-08T15:21:57;19.30;69.80
73121;DHT22;61307;49.628;-1.624;2023-08-08T15:24:26;19.40;70.10
73121;DHT22;61307;49.628;-1.624;2023-08-08T15:27:16;19.40;70.20
73121;DHT22;61307;49.628;-1.624;2023-08-08T15:29:57;19.40;70.20
73121;DHT22;61307;49.628;-1.624;2023-08-08T15:32:38;19.40;70.60
73121;DHT22;61307;49.628;-1.624;2023-08-08T15:35:27;19.30;70.70
73121;DHT22;61307;49.628;-1.624;2023-08-08T15:37:56;19.30;70.80
73121;DHT22;61307;49.628;-1.624;2023-08-08T15:43:32;19.30;70.90
73121;DHT22;61307;49.628;-1.624;2023-08-08T15:49:28;19.30;71.50
73121;DHT22;61307;49.628;-1.624;2023-08-08T15:56:06;19.30;71.50
73121;DHT22;61307;49.628;-1.624;2023-08-08T15:58:49;19.30;71.40
73121;DHT22;61307;49.628;-1.624;2023-08-08T16:01:21;19.30;71.40
73121;DHT22;61307;49.628;-1.624;2023-08-08T16:03:49;19.30;71.70
73121;DHT22;61307;49.628;-1.624;2023-08-08T16:06:19;19.30;71.40
73121;DHT22;61307;49.628;-1.624;2023-08-08T16:08:57;19.30;71.40
73121;DHT22;61307;49.628;-1.624;2023-08-08T16:11:26;19.30;71.50
73121;DHT22;61307;49.628;-1.624;2023-08-08T16:13:53;19.30;71.30
73121;DHT22;61307;49.628;-1.624;2023-08-08T16:16:20;19.30;71.60
73121;DHT22;61307;49.628;-1.624;2023-08-08T16:18:56;19.30;71.40
73121;DHT22;61307;49.628;-1.624;2023-08-08T16:23:37;19.30;71.80
73121;DHT22;61307;49.628;-1.624;2023-08-08T16:24:31;19.30;71.70
73121;DHT22;61307;49.628;-1.624;2023-08-08T16:27:00;19.30;71.70
73121;DHT22;61307;49.628;-1.624;2023-08-08T16:29:28;19.30;71.70
73121;DHT22;61307;49.628;-1.624;2023-08-08T16:32:26;19.30;71.80
73121;DHT22;61307;49.628;-1.624;2023-08-08T16:35:22;19.30;72.00
73121;DHT22;61307;49.628;-1.624;2023-08-08T16:41:09;19.30;72.00
73121;DHT22;61307;49.628;-1.624;2023-08-08T16:44:07;19.30;72.10
73121;DHT22;61307;49.628;-1.624;2023-08-08T16:52:51;19.20;72.40
73121;DHT22;61307;49.628;-1.624;2023-08-08T16:58:13;19.20;72.80
73121;DHT22;61307;49.628;-1.624;2023-08-08T17:03:45;19.30;73.30
73121;DHT22;61307;49.628;-1.624;2023-08-08T17:06:38;19.30;73.30
73121;DHT22;61307;49.628;-1.624;2023-08-08T17:09:06;19.20;73.20
73121;DHT22;61307;49.628;-1.624;2023-08-08T17:11:33;19.20;73.50
73121;DHT22;61307;49.628;-1.624;2023-08-08T17:14:13;19.30;73.60
73121;DHT22;61307;49.628;-1.624;2023-08-08T17:16:42;19.20;74.10
73121;DHT22;61307;49.628;-1.624;2023-08-08T17:19:15;19.20;74.00
73121;DHT22;61307;49.628;-1.624;2023-08-08T17:22:19;19.20;74.20
73121;DHT22;61307;49.628;-1.624;2023-08-08T17:24:53;19.20;74.00
73121;DHT22;61307;49.628;-1.624;2023-08-08T17:27:21;19.20;74.20
73121;DHT22;61307;49.628;-1.624;2023-08-08T17:39:24;19.30;74.10
73121;DHT22;61307;49.628;-1.624;2023-08-08T17:45:35;19.30;74.20
73121;DHT22;61307;49.628;-1.624;2023-08-08T18:18:40;19.20;74.40
73121;DHT22;61307;49.628;-1.624;2023-08-08T18:24:35;19.10;74.10
73121;DHT22;61307;49.628;-1.624;2023-08-08T18:30:49;19.10;73.90
73121;DHT22;61307;49.628;-1.624;2023-08-08T18:37:40;19.20;73.80
73121;DHT22;61307;49.628;-1.624;2023-08-08T18:40:08;19.20;74.00
73121;DHT22;61307;49.628;-1.624;2023-08-08T18:42:51;19.20;73.60
73121;DHT22;61307;49.628;-1.624;2023-08-08T18:48:53;19.10;73.50
73121;DHT22;61307;49.628;-1.624;2023-08-08T18:51:31;19.10;73.80
73121;DHT22;61307;49.628;-1.624;2023-08-08T18:57:36;19.10;73.80
73121;DHT22;61307;49.628;-1.624;2023-08-08T19:10:02;19.10;73.50
73121;DHT22;61307;49.628;-1.624;2023-08-08T19:12:55;19.10;73.40
73121;DHT22;61307;49.628;-1.624;2023-08-08T19:21:59;19.10;73.10
73121;DHT22;61307;49.628;-1.624;2023-08-08T19:24:57;19.10;73.20
73121;DHT22;61307;49.628;-1.624;2023-08-08T19:27:15;19.10;73.10
73121;DHT22;61307;49.628;-1.624;2023-08-08T19:36:21;19.10;72.80
73121;DHT22;61307;49.628;-1.624;2023-08-08T19:49:03;19.10;72.70
73121;DHT22;61307;49.628;-1.624;2023-08-08T20:01:45;19.00;73.00
73121;DHT22;61307;49.628;-1.624;2023-08-08T20:04:12;19.00;73.10
73121;DHT22;61307;49.628;-1.624;2023-08-08T20:06:41;19.00;73.00
73121;DHT22;61307;49.628;-1.624;2023-08-08T20:09:21;19.10;73.00
73121;DHT22;61307;49.628;-1.624;2023-08-08T20:11:51;19.00;73.00
73121;DHT22;61307;49.628;-1.624;2023-08-08T20:14:19;19.00;73.00
73121;DHT22;61307;49.628;-1.624;2023-08-08T20:23:04;19.10;73.10
73121;DHT22;61307;49.628;-1.624;2023-08-08T20:25:31;19.10;73.10
73121;DHT22;61307;49.628;-1.624;2023-08-08T20:38:25;19.10;72.80
73121;DHT22;61307;49.628;-1.624;2023-08-08T20:41:12;19.10;72.80
73121;DHT22;61307;49.628;-1.624;2023-08-08T20:47:19;19.10;72.90
73121;DHT22;61307;49.628;-1.624;2023-08-08T20:50:01;19.10;73.00
73121;DHT22;61307;49.628;-1.624;2023-08-08T20:53:03;19.10;72.80
73121;DHT22;61307;49.628;-1.624;2023-08-08T20:55:45;19.10;73.10
73121;DHT22;61307;49.628;-1.624;2023-08-08T21:01:23;19.00;73.00
73121;DHT22;61307;49.628;-1.624;2023-08-08T21:03:51;19.00;73.10
73121;DHT22;61307;49.628;-1.624;2023-08-08T21:09:43;19.00;73.20
73121;DHT22;61307;49.628;-1.624;2023-08-08T21:12:15;19.00;73.30
73121;DHT22;61307;49.628;-1.624;2023-08-08T21:18:18;18.90;73.30
73121;DHT22;61307;49.628;-1.624;2023-08-08T21:27:06;18.90;73.30
73121;DHT22;61307;49.628;-1.624;2023-08-08T21:33:30;18.90;73.20
73121;DHT22;61307;49.628;-1.624;2023-08-08T21:35:57;19.00;73.30
73121;DHT22;61307;49.628;-1.624;2023-08-08T21:38:39;19.00;73.10
73121;DHT22;61307;49.628;-1.624;2023-08-08T21:41:06;19.00;73.00
73121;DHT22;61307;49.628;-1.624;2023-08-08T21:49:56;19.10;72.90
73121;DHT22;61307;49.628;-1.624;2023-08-08T21:56:20;19.10;73.00
73121;DHT22;61307;49.628;-1.624;2023-08-08T21:59:07;19.10;72.70
73121;DHT22;61307;49.628;-1.624;2023-08-08T22:02:24;19.10;72.70
73121;DHT22;61307;49.628;-1.624;2023-08-08T22:29:05;19.00;72.50
73121;DHT22;61307;49.628;-1.624;2023-08-08T22:49:36;19.00;72.40
73121;DHT22;61307;49.628;-1.624;2023-08-08T22:52:03;19.00;72.60
73121;DHT22;61307;49.628;-1.624;2023-08-08T22:54:39;19.00;72.80
73121;DHT22;61307;49.628;-1.624;2023-08-08T22:57:23;19.00;72.60
73121;DHT22;61307;49.628;-1.624;2023-08-08T23:00:17;19.00;72.50
73121;DHT22;61307;49.628;-1.624;2023-08-08T23:02:48;19.00;72.40
73121;DHT22;61307;49.628;-1.624;2023-08-08T23:05:31;19.00;72.50
73121;DHT22;61307;49.628;-1.624;2023-08-08T23:07:59;19.10;72.50
73121;DHT22;61307;49.628;-1.624;2023-08-08T23:11:01;19.00;72.60
73121;DHT22;61307;49.628;-1.624;2023-08-08T23:20:18;18.90;72.70
73121;DHT22;61307;49.628;-1.624;2023-08-08T23:32:09;19.00;73.00
73121;DHT22;61307;49.628;-1.624;2023-08-08T23:34:37;19.00;72.90
73121;DHT22;61307;49.628;-1.624;2023-08-08T23:37:08;19.00;73.00
73121;DHT22;61307;49.628;-1.624;2023-08-08T23:39:35;19.00;72.90
73121;DHT22;61307;49.628;-1.624;2023-08-08T23:42:04;19.00;72.90
73121;DHT22;61307;49.628;-1.624;2023-08-08T23:56:33;19.00;72.80
73121;DHT22;61307;49.628;-1.624;2023-08-08T23:59:34;19.00;72.60
